createdAt,value
2022-07-26T00:01:33.633Z,14.65
2022-07-26T00:04:35.936Z,14.63
2022-07-26T00:07:39.324Z,14.53
2022-07-26T00:10:44.095Z,14.44
2022-07-26T00:13:46.083Z,14.40
2022-07-26T00:16:48.362Z,14.41
2022-07-26T00:19:50.186Z,14.38
2022-07-26T00:22:51.960Z,14.39
2022-07-26T00:25:53.678Z,14.38
2022-07-26T00:28:55.531Z,14.37
2022-07-26T00:31:57.411Z,14.35
2022-07-26T00:34:59.414Z,14.34
2022-07-26T00:38:01.210Z,14.35
2022-07-26T00:41:03.078Z,14.24
2022-07-26T00:44:05.128Z,14.12
2022-07-26T00:47:07.182Z,13.93
2022-07-26T00:50:12.422Z,13.74
2022-07-26T00:53:14.402Z,13.66
2022-07-26T00:56:17.381Z,13.64
2022-07-26T00:59:19.212Z,13.63
2022-07-26T01:02:20.997Z,13.61
2022-07-26T01:05:23.643Z,13.54
2022-07-26T01:08:25.547Z,13.49
2022-07-26T01:11:27.399Z,13.46
2022-07-26T01:14:29.291Z,13.44
2022-07-26T01:17:31.045Z,13.40
2022-07-26T01:20:36.361Z,13.38
2022-07-26T01:23:38.751Z,13.38
2022-07-26T01:26:40.599Z,13.36
2022-07-26T01:29:42.435Z,13.35
2022-07-26T01:32:44.292Z,13.34
2022-07-26T01:35:46.041Z,13.39
2022-07-26T01:38:48.034Z,13.40
2022-07-26T01:41:49.826Z,13.36
2022-07-26T01:44:51.558Z,13.32
2022-07-26T01:47:53.376Z,13.31
2022-07-26T01:50:55.241Z,13.30
2022-07-26T01:53:57.245Z,13.29
2022-07-26T01:57:10.514Z,13.30
2022-07-26T02:00:13.665Z,13.30
2022-07-26T02:03:15.728Z,13.29
2022-07-26T02:06:17.502Z,13.34
2022-07-26T02:09:19.684Z,13.30
2022-07-26T02:12:23.026Z,13.20
2022-07-26T02:15:24.975Z,13.00
2022-07-26T02:18:28.693Z,12.95
2022-07-26T02:21:30.492Z,12.97
2022-07-26T02:24:33.073Z,12.94
2022-07-26T02:27:34.953Z,12.95
2022-07-26T02:30:36.898Z,12.95
2022-07-26T02:33:38.610Z,12.92
2022-07-26T02:36:40.285Z,12.93
2022-07-26T02:39:42.253Z,12.94
2022-07-26T02:42:44.023Z,12.87
2022-07-26T02:45:45.815Z,12.85
2022-07-26T02:49:04.149Z,12.88
2022-07-26T02:52:05.933Z,12.84
2022-07-26T02:55:08.215Z,12.78
2022-07-26T02:58:10.001Z,12.76
2022-07-26T03:01:11.988Z,12.76
2022-07-26T03:04:15.452Z,12.81
2022-07-26T03:07:17.186Z,12.88
2022-07-26T03:10:19.111Z,12.90
2022-07-26T03:13:20.941Z,12.93
2022-07-26T03:16:27.348Z,12.96
2022-07-26T03:19:31.114Z,13.01
2022-07-26T03:22:32.923Z,13.08
2022-07-26T03:25:37.670Z,13.14
2022-07-26T03:28:42.272Z,13.21
2022-07-26T03:31:44.487Z,13.34
2022-07-26T03:34:46.435Z,13.45
2022-07-26T03:37:48.092Z,13.46
2022-07-26T03:40:49.892Z,13.59
2022-07-26T03:43:51.637Z,13.80
2022-07-26T03:46:53.477Z,13.98
2022-07-26T03:49:55.247Z,14.17
2022-07-26T03:52:57.023Z,14.32
2022-07-26T03:56:17.362Z,14.48
2022-07-26T03:59:19.297Z,14.61
2022-07-26T04:02:21.342Z,14.72
2022-07-26T04:05:23.944Z,14.83
2022-07-26T04:08:28.343Z,14.94
2022-07-26T04:11:30.422Z,15.09
2022-07-26T04:14:32.138Z,15.23
2022-07-26T04:17:40.946Z,15.37
2022-07-26T04:20:43.276Z,15.51
2022-07-26T04:23:50.754Z,15.65
2022-07-26T04:26:53.087Z,15.79
2022-07-26T04:29:54.937Z,15.95
2022-07-26T04:32:56.780Z,16.01
2022-07-26T04:35:58.978Z,16.01
2022-07-26T04:39:00.627Z,16.11
2022-07-26T04:42:02.326Z,16.18
2022-07-26T04:45:08.303Z,16.27
2022-07-26T04:48:10.522Z,16.52
2022-07-26T04:51:12.286Z,16.88
2022-07-26T04:54:15.670Z,17.24
2022-07-26T04:57:17.563Z,17.57
2022-07-26T05:00:24.381Z,17.84
2022-07-26T05:03:26.361Z,18.10
2022-07-26T05:06:28.075Z,18.42
2022-07-26T05:09:30.071Z,18.84
2022-07-26T05:12:31.925Z,19.38
2022-07-26T05:15:36.341Z,20.02
2022-07-26T05:18:48.847Z,20.60
2022-07-26T05:21:51.885Z,21.01
2022-07-26T05:24:53.516Z,21.34
2022-07-26T05:27:55.282Z,21.27
2022-07-26T05:30:57.091Z,21.24
2022-07-26T05:33:58.852Z,21.15
2022-07-26T05:37:00.673Z,21.13
2022-07-26T05:40:04.544Z,21.24
2022-07-26T05:43:06.405Z,21.39
2022-07-26T05:46:09.845Z,21.35
2022-07-26T05:49:11.923Z,21.47
2022-07-26T05:52:13.742Z,21.50
2022-07-26T05:55:15.520Z,21.53
2022-07-26T05:58:17.338Z,21.75
2022-07-26T06:01:19.704Z,22.06
2022-07-26T06:04:22.475Z,22.26
2022-07-26T06:07:26.942Z,22.47
2022-07-26T06:10:28.768Z,22.81
2022-07-26T06:13:30.665Z,23.23
2022-07-26T06:16:32.525Z,23.45
2022-07-26T06:19:35.026Z,23.73
2022-07-26T06:22:36.873Z,23.99
2022-07-26T06:25:38.863Z,23.94
2022-07-26T06:28:41.338Z,23.96
2022-07-26T06:31:43.202Z,23.93
2022-07-26T06:34:44.988Z,23.83
2022-07-26T06:37:49.334Z,23.64
2022-07-26T06:40:51.188Z,23.42
2022-07-26T06:43:54.525Z,23.22
2022-07-26T06:46:56.548Z,22.98
2022-07-26T06:50:00.066Z,22.82
2022-07-26T06:53:02.045Z,22.68
2022-07-26T06:56:04.185Z,22.60
2022-07-26T06:59:09.407Z,22.84
2022-07-26T07:02:11.400Z,23.25
2022-07-26T07:05:13.407Z,23.65
2022-07-26T07:08:15.851Z,24.12
2022-07-26T07:11:19.740Z,24.71
2022-07-26T07:14:22.234Z,25.21
2022-07-26T07:17:23.998Z,25.37
2022-07-26T07:20:26.699Z,25.43
2022-07-26T07:23:28.654Z,25.34
2022-07-26T07:26:30.523Z,25.28
2022-07-26T07:29:32.666Z,25.23
2022-07-26T07:32:34.677Z,25.36
2022-07-26T07:35:37.012Z,25.68
2022-07-26T07:38:38.743Z,25.98
2022-07-26T07:41:48.830Z,26.39
2022-07-26T07:44:50.789Z,26.71
2022-07-26T07:47:52.482Z,26.84
2022-07-26T07:50:54.618Z,26.57
2022-07-26T07:53:57.948Z,26.22
2022-07-26T07:57:01.099Z,25.98
2022-07-26T08:00:05.108Z,25.97
2022-07-26T08:03:07.090Z,26.29
2022-07-26T08:06:10.667Z,26.76
2022-07-26T08:09:13.309Z,27.27
2022-07-26T08:12:15.563Z,27.27
2022-07-26T08:15:17.747Z,27.22
2022-07-26T08:18:22.898Z,27.04
2022-07-26T08:21:28.302Z,26.85
2022-07-26T08:24:31.217Z,26.75
2022-07-26T08:27:40.438Z,26.59
2022-07-26T08:30:43.125Z,26.41
2022-07-26T08:33:45.748Z,26.35
2022-07-26T08:37:14.198Z,26.32
2022-07-26T08:40:10.396Z,26.23
2022-07-26T08:43:12.326Z,26.13
2022-07-26T08:46:14.329Z,26.08
2022-07-26T08:49:16.417Z,26.06
2022-07-26T08:52:18.211Z,26.03
2022-07-26T08:55:21.002Z,25.91
2022-07-26T08:58:22.748Z,25.76
2022-07-26T09:01:24.670Z,25.64
2022-07-26T09:04:32.785Z,25.58
2022-07-26T09:07:36.098Z,25.46
2022-07-26T09:10:39.350Z,25.45
2022-07-26T09:13:51.041Z,25.29
2022-07-26T09:16:58.689Z,24.93
2022-07-26T09:20:24.527Z,24.75
2022-07-26T09:23:40.008Z,24.67
2022-07-26T09:26:55.397Z,24.55
2022-07-26T09:30:05.962Z,24.33
2022-07-26T09:33:11.254Z,24.08
2022-07-26T09:36:13.585Z,23.88
2022-07-26T09:39:15.632Z,23.78
2022-07-26T09:42:28.474Z,23.69
2022-07-26T09:45:33.810Z,23.62
2022-07-26T09:49:09.858Z,23.71
2022-07-26T09:52:00.439Z,24.02
2022-07-26T09:55:06.358Z,24.34
2022-07-26T09:58:08.208Z,24.12
2022-07-26T10:01:09.995Z,23.81
2022-07-26T10:04:13.342Z,23.55
2022-07-26T10:07:17.265Z,23.33
2022-07-26T10:10:26.064Z,23.09
2022-07-26T10:13:28.573Z,22.56
2022-07-26T10:16:33.198Z,22.12
2022-07-26T10:19:45.641Z,21.53
2022-07-26T10:22:50.758Z,21.15
2022-07-26T10:25:53.032Z,20.98
2022-07-26T10:28:55.379Z,20.75
2022-07-26T10:32:00.468Z,20.34
2022-07-26T10:35:34.575Z,20.09
2022-07-26T10:38:37.848Z,19.94
2022-07-26T10:41:44.095Z,19.75
2022-07-26T10:44:45.888Z,19.49
2022-07-26T10:48:14.718Z,19.23
2022-07-26T10:51:27.781Z,19.07
2022-07-26T10:54:29.839Z,19.04
2022-07-26T10:57:34.663Z,19.05
2022-07-26T11:00:36.559Z,19.10
2022-07-26T11:03:40.559Z,19.21
2022-07-26T11:06:42.623Z,19.37
2022-07-26T11:09:44.541Z,19.57
2022-07-26T11:12:46.292Z,19.81
2022-07-26T11:15:50.906Z,20.13
2022-07-26T11:18:52.795Z,20.49
2022-07-26T11:22:03.635Z,20.78
2022-07-26T11:25:05.978Z,21.01
2022-07-26T11:28:08.380Z,21.24
2022-07-26T11:31:11.582Z,21.34
2022-07-26T11:34:22.094Z,21.31
2022-07-26T11:37:24.104Z,21.26
2022-07-26T11:40:46.120Z,21.19
2022-07-26T11:43:49.427Z,21.06
2022-07-26T11:46:51.738Z,20.96
2022-07-26T11:50:13.951Z,20.90
2022-07-26T11:53:23.249Z,20.88
2022-07-26T11:56:25.948Z,20.85
2022-07-26T11:59:30.495Z,20.80
2022-07-26T12:02:32.377Z,20.78
2022-07-26T12:05:34.859Z,20.78
2022-07-26T12:08:40.375Z,20.80
2022-07-26T12:11:44.468Z,20.81
2022-07-26T12:15:05.729Z,20.79
2022-07-26T12:18:08.931Z,20.74
2022-07-26T12:21:11.355Z,20.72
2022-07-26T12:24:45.060Z,20.71
2022-07-26T12:27:47.439Z,20.69
2022-07-26T12:30:49.219Z,20.67
2022-07-26T12:33:51.191Z,20.65
2022-07-26T12:36:53.097Z,20.65
2022-07-26T12:40:07.968Z,20.65
2022-07-26T12:43:10.179Z,20.65
2022-07-26T12:46:12.203Z,20.65
2022-07-26T12:49:14.005Z,20.67
2022-07-26T12:52:17.623Z,20.68
2022-07-26T12:55:21.673Z,20.69
2022-07-26T12:58:23.446Z,20.68
2022-07-26T13:01:25.205Z,20.69
2022-07-26T13:04:27.112Z,20.70
2022-07-26T13:07:28.934Z,20.68
2022-07-26T13:10:33.656Z,20.65
2022-07-26T13:13:36.061Z,20.64
2022-07-26T13:16:37.899Z,20.67
2022-07-26T13:19:39.817Z,20.71
2022-07-26T13:22:42.351Z,20.77
2022-07-26T13:25:44.096Z,20.84
2022-07-26T13:28:49.639Z,20.90
2022-07-26T13:31:52.133Z,20.86
2022-07-26T13:34:53.834Z,20.77
2022-07-26T13:37:55.512Z,20.68
2022-07-26T13:40:57.322Z,20.52
2022-07-26T13:44:00.908Z,20.26
2022-07-26T13:47:02.676Z,19.88
2022-07-26T13:50:04.707Z,19.57
2022-07-26T13:53:08.503Z,19.37
2022-07-26T13:56:10.471Z,19.21
2022-07-26T13:59:13.018Z,19.11
2022-07-26T14:02:15.312Z,19.05
2022-07-26T14:05:17.544Z,18.98
2022-07-26T14:08:19.964Z,18.91
2022-07-26T14:11:21.979Z,18.82
2022-07-26T14:14:23.786Z,18.69
2022-07-26T14:17:25.481Z,18.58
2022-07-26T14:20:27.611Z,18.47
2022-07-26T14:23:29.854Z,18.30
2022-07-26T14:26:31.977Z,18.10
2022-07-26T14:29:34.009Z,17.84
2022-07-26T14:32:35.723Z,17.61
2022-07-26T14:35:37.600Z,17.43
2022-07-26T14:38:41.337Z,17.27
2022-07-26T14:41:43.203Z,17.19
2022-07-26T14:44:45.158Z,17.11
2022-07-26T14:47:46.981Z,17.03
2022-07-26T14:51:08.686Z,16.95
2022-07-26T14:54:13.186Z,16.90
2022-07-26T14:57:15.511Z,16.89
2022-07-26T15:00:18.788Z,16.88
2022-07-26T15:03:20.834Z,16.88
2022-07-26T15:06:22.830Z,16.88
2022-07-26T15:09:24.675Z,16.89
2022-07-26T15:12:26.592Z,16.92
2022-07-26T15:15:29.263Z,16.94
2022-07-26T15:18:31.038Z,16.97
2022-07-26T15:21:32.901Z,16.99
2022-07-26T15:24:39.571Z,16.99
2022-07-26T15:27:42.158Z,17.03
2022-07-26T15:30:44.122Z,17.03
2022-07-26T15:33:46.722Z,17.06
2022-07-26T15:36:48.450Z,17.07
2022-07-26T15:39:51.853Z,17.06
2022-07-26T15:42:54.017Z,17.05
2022-07-26T15:45:57.717Z,17.03
2022-07-26T15:49:01.839Z,16.97
2022-07-26T15:52:04.714Z,16.93
2022-07-26T15:55:07.986Z,16.90
2022-07-26T15:58:09.988Z,16.89
2022-07-26T16:01:11.888Z,16.89
2022-07-26T16:04:14.854Z,16.88
2022-07-26T16:07:16.951Z,16.90
2022-07-26T16:10:18.813Z,16.90
2022-07-26T16:13:20.498Z,16.91
2022-07-26T16:16:22.644Z,16.91
2022-07-26T16:19:24.453Z,16.93
2022-07-26T16:22:26.302Z,16.96
2022-07-26T16:25:28.030Z,16.98
2022-07-26T16:28:29.826Z,17.01
2022-07-26T16:31:31.693Z,17.02
2022-07-26T16:34:34.859Z,17.03
2022-07-26T16:37:36.663Z,17.05
2022-07-26T16:40:38.341Z,17.06
2022-07-26T16:43:40.516Z,17.09
2022-07-26T16:46:42.387Z,17.11
2022-07-26T16:49:46.285Z,17.15
2022-07-26T16:52:48.082Z,17.20
2022-07-26T16:55:51.968Z,17.27
2022-07-26T16:58:53.734Z,17.34
2022-07-26T17:01:55.627Z,17.39
2022-07-26T17:05:01.363Z,17.43
2022-07-26T17:08:03.152Z,17.47
2022-07-26T17:11:04.998Z,17.53
2022-07-26T17:14:07.081Z,17.58
2022-07-26T17:17:09.103Z,17.62
2022-07-26T17:20:11.427Z,17.66
2022-07-26T17:23:13.244Z,17.69
2022-07-26T17:26:19.014Z,17.71
2022-07-26T17:29:21.003Z,17.71
2022-07-26T17:32:22.758Z,17.71
2022-07-26T17:35:26.697Z,17.70
2022-07-26T17:38:28.551Z,17.70
2022-07-26T17:41:32.975Z,17.69
2022-07-26T17:44:35.374Z,17.69
2022-07-26T17:47:37.327Z,17.69
2022-07-26T17:50:39.163Z,17.69
2022-07-26T17:53:43.406Z,17.69
2022-07-26T17:56:46.005Z,17.68
2022-07-26T17:59:47.781Z,17.67
2022-07-26T18:02:49.796Z,17.65
2022-07-26T18:05:51.942Z,17.64
2022-07-26T18:08:54.055Z,17.62
2022-07-26T18:11:55.745Z,17.60
2022-07-26T18:14:57.687Z,17.58
2022-07-26T18:17:59.737Z,17.56
2022-07-26T18:21:01.550Z,17.53
2022-07-26T18:24:16.261Z,17.49
2022-07-26T18:27:19.708Z,17.46
2022-07-26T18:30:21.801Z,17.43
2022-07-26T18:33:23.626Z,17.39
2022-07-26T18:36:28.334Z,17.36
2022-07-26T18:39:32.935Z,17.33
2022-07-26T18:42:36.327Z,17.31
2022-07-26T18:45:38.040Z,17.26
2022-07-26T18:48:41.786Z,17.24
2022-07-26T18:51:44.742Z,17.24
2022-07-26T18:54:50.550Z,17.22
2022-07-26T18:57:53.857Z,17.19
2022-07-26T19:00:55.711Z,17.15
2022-07-26T19:03:57.522Z,17.11
2022-07-26T19:06:59.246Z,17.07
2022-07-26T19:10:01.036Z,17.06
2022-07-26T19:13:02.823Z,17.04
2022-07-26T19:16:04.799Z,17.04
2022-07-26T19:19:06.816Z,17.02
2022-07-26T19:22:08.760Z,16.98
2022-07-26T19:25:13.623Z,16.95
2022-07-26T19:28:15.365Z,16.92
2022-07-26T19:31:17.193Z,16.91
2022-07-26T19:34:19.441Z,16.87
2022-07-26T19:37:21.628Z,16.84
2022-07-26T19:40:23.872Z,16.82
2022-07-26T19:43:25.652Z,16.79
2022-07-26T19:46:27.591Z,16.77
2022-07-26T19:49:29.687Z,16.75
2022-07-26T19:52:31.598Z,16.72
2022-07-26T19:55:33.515Z,16.68
2022-07-26T19:58:35.287Z,16.63
2022-07-26T20:01:37.341Z,16.60
2022-07-26T20:04:42.959Z,16.58
2022-07-26T20:07:49.139Z,16.56
2022-07-26T20:10:51.675Z,16.55
2022-07-26T20:13:53.995Z,16.53
2022-07-26T20:16:58.019Z,16.51
2022-07-26T20:19:59.744Z,16.50
2022-07-26T20:23:03.555Z,16.46
2022-07-26T20:26:05.298Z,16.41
2022-07-26T20:29:07.649Z,16.37
2022-07-26T20:32:09.489Z,16.31
2022-07-26T20:35:11.548Z,16.25
2022-07-26T20:38:13.392Z,16.19
2022-07-26T20:41:15.267Z,16.13
2022-07-26T20:44:19.759Z,16.03
2022-07-26T20:47:24.824Z,15.95
2022-07-26T20:50:26.653Z,15.86
2022-07-26T20:53:28.346Z,15.77
2022-07-26T20:56:32.455Z,15.70
2022-07-26T20:59:35.253Z,15.72
2022-07-26T21:02:37.192Z,15.79
2022-07-26T21:05:39.019Z,15.82
2022-07-26T21:08:40.734Z,15.84
2022-07-26T21:11:42.433Z,15.85
2022-07-26T21:14:44.285Z,15.84
2022-07-26T21:17:46.053Z,15.82
2022-07-26T21:20:48.099Z,15.81
2022-07-26T21:23:49.888Z,15.78
2022-07-26T21:26:51.815Z,15.74
2022-07-26T21:29:54.419Z,15.67
2022-07-26T21:32:56.315Z,15.58
2022-07-26T21:35:58.187Z,15.50
2022-07-26T21:38:59.986Z,15.44
2022-07-26T21:42:02.610Z,15.37
2022-07-26T21:45:05.457Z,15.34
2022-07-26T21:48:07.279Z,15.26
2022-07-26T21:51:08.998Z,15.20
2022-07-26T21:54:10.800Z,15.10
2022-07-26T21:57:12.651Z,15.03
2022-07-26T22:00:15.900Z,14.93
2022-07-26T22:03:29.929Z,14.77
2022-07-26T22:06:34.346Z,14.61
2022-07-26T22:09:36.219Z,14.46
2022-07-26T22:12:37.953Z,14.38
2022-07-26T22:15:39.775Z,14.44
2022-07-26T22:18:41.595Z,14.45
2022-07-26T22:21:43.358Z,14.41
2022-07-26T22:24:45.126Z,14.41
2022-07-26T22:27:46.827Z,14.41
2022-07-26T22:30:48.669Z,14.38
2022-07-26T22:33:50.622Z,14.36
2022-07-26T22:36:52.598Z,14.35
2022-07-26T22:39:54.387Z,14.35
2022-07-26T22:42:58.640Z,14.34
2022-07-26T22:46:00.438Z,14.33
2022-07-26T22:49:02.367Z,14.34
2022-07-26T22:52:04.315Z,14.33
2022-07-26T22:55:06.586Z,14.30
2022-07-26T22:58:08.560Z,14.29
2022-07-26T23:01:10.298Z,14.23
2022-07-26T23:04:12.143Z,14.14
2022-07-26T23:07:14.726Z,14.05
2022-07-26T23:10:17.450Z,13.98
2022-07-26T23:13:19.284Z,13.97
2022-07-26T23:16:21.032Z,13.92
2022-07-26T23:19:25.294Z,13.87
2022-07-26T23:22:27.375Z,13.83
2022-07-26T23:25:29.046Z,13.78
2022-07-26T23:28:35.739Z,13.76
2022-07-26T23:31:39.958Z,13.76
2022-07-26T23:34:41.651Z,13.82
2022-07-26T23:37:43.447Z,13.91
2022-07-26T23:40:45.191Z,13.89
2022-07-26T23:43:47.140Z,13.89
2022-07-26T23:46:48.897Z,13.89
2022-07-26T23:49:50.621Z,13.82
2022-07-26T23:52:52.346Z,13.82
2022-07-26T23:55:55.793Z,13.80
2022-07-26T23:58:57.586Z,13.79
